createdAt,value
2023-05-13T00:00:26.849Z,69.29
2023-05-13T00:01:26.856Z,69.29
2023-05-13T00:02:26.902Z,69.29
2023-05-13T00:03:26.909Z,69.29
2023-05-13T00:04:26.792Z,69.29
2023-05-13T00:05:26.778Z,69.29
2023-05-13T00:06:26.925Z,69.29
2023-05-13T00:07:26.772Z,69.29
2023-05-13T00:08:26.737Z,69.39
2023-05-13T00:09:26.725Z,69.39
2023-05-13T00:10:26.712Z,69.29
2023-05-13T00:11:26.698Z,69.29
2023-05-13T00:12:26.698Z,69.39
2023-05-13T00:13:26.677Z,69.39
2023-05-13T00:14:26.672Z,69.39
2023-05-13T00:15:26.651Z,69.39
2023-05-13T00:16:26.684Z,69.39
2023-05-13T00:17:26.697Z,69.39
2023-05-13T00:18:26.636Z,69.39
2023-05-13T00:19:26.622Z,69.39
2023-05-13T00:20:26.586Z,69.39
2023-05-13T00:21:26.578Z,69.39
2023-05-13T00:22:26.561Z,69.39
2023-05-13T00:23:26.548Z,69.39
2023-05-13T00:24:26.531Z,69.39
2023-05-13T00:25:26.521Z,69.43
2023-05-13T00:26:26.505Z,69.43
2023-05-13T00:27:26.495Z,69.43
2023-05-13T00:28:26.480Z,69.43
2023-05-13T00:29:26.470Z,69.43
2023-05-13T00:30:26.456Z,69.50
2023-05-13T00:31:26.530Z,69.50
2023-05-13T00:32:26.448Z,69.53
2023-05-13T00:33:26.441Z,69.53
2023-05-13T00:34:26.405Z,69.53
2023-05-13T00:35:26.397Z,69.53
2023-05-13T00:36:26.380Z,69.53
2023-05-13T00:37:26.365Z,69.53
2023-05-13T00:38:26.364Z,69.53
2023-05-13T00:39:26.342Z,69.53
2023-05-13T00:40:26.335Z,69.53
2023-05-13T00:41:26.318Z,69.53
2023-05-13T00:42:26.302Z,69.53
2023-05-13T00:43:26.288Z,69.53
2023-05-13T00:44:26.281Z,69.53
2023-05-13T00:45:26.282Z,69.53
2023-05-13T00:46:26.258Z,69.53
2023-05-13T00:47:26.288Z,69.53
2023-05-13T00:48:26.221Z,69.63
2023-05-13T00:49:26.234Z,69.63
2023-05-13T00:50:26.204Z,69.63
2023-05-13T00:51:26.186Z,69.63
2023-05-13T00:52:26.171Z,69.63
2023-05-13T00:53:26.162Z,69.63
2023-05-13T00:54:26.156Z,69.63
2023-05-13T00:55:26.137Z,69.63
2023-05-13T00:56:26.122Z,69.63
2023-05-13T00:57:26.130Z,69.63
2023-05-13T00:58:26.103Z,69.63
2023-05-13T00:59:26.085Z,69.63
2023-05-13T01:00:26.075Z,69.63
2023-05-13T01:01:26.112Z,69.63
2023-05-13T01:02:26.084Z,69.73
2023-05-13T01:03:26.112Z,69.63
2023-05-13T01:04:26.014Z,69.63
2023-05-13T01:05:26.037Z,69.53
2023-05-13T01:06:25.992Z,69.43
2023-05-13T01:07:25.980Z,69.53
2023-05-13T01:08:25.963Z,69.53
2023-05-13T01:09:25.953Z,69.53
2023-05-13T01:10:25.941Z,69.63
2023-05-13T01:11:25.928Z,69.73
2023-05-13T01:12:25.914Z,69.73
2023-05-13T01:13:25.906Z,69.73
2023-05-13T01:14:25.899Z,69.73
2023-05-13T01:15:25.874Z,69.73
2023-05-13T01:16:25.949Z,69.73
2023-05-13T01:17:25.897Z,69.73
2023-05-13T01:18:25.867Z,69.73
2023-05-13T01:19:25.826Z,69.83
2023-05-13T01:20:25.818Z,69.83
2023-05-13T01:21:25.823Z,69.83
2023-05-13T01:22:25.785Z,69.83
2023-05-13T01:23:25.791Z,69.83
2023-05-13T01:24:25.854Z,69.83
2023-05-13T01:25:25.766Z,69.83
2023-05-13T01:26:25.741Z,69.83
2023-05-13T01:27:25.736Z,69.83
2023-05-13T01:28:25.708Z,69.83
2023-05-13T01:29:25.701Z,69.83
2023-05-13T01:30:25.733Z,69.83
2023-05-13T01:31:25.696Z,69.83
2023-05-13T01:32:25.737Z,69.83
2023-05-13T01:33:25.646Z,69.83
2023-05-13T01:34:25.629Z,69.83
2023-05-13T01:35:25.626Z,69.83
2023-05-13T01:36:25.614Z,69.83
2023-05-13T01:37:25.629Z,69.83
2023-05-13T01:38:25.579Z,69.83
2023-05-13T01:39:25.573Z,69.83
2023-05-13T01:41:25.543Z,69.83
2023-05-13T01:42:25.532Z,69.83
2023-05-13T01:43:25.515Z,69.73
2023-05-13T01:44:25.558Z,69.83
2023-05-13T01:45:25.506Z,69.83
2023-05-13T01:46:25.552Z,69.83
2023-05-13T01:47:25.509Z,69.94
2023-05-13T01:48:25.454Z,69.94
2023-05-13T01:49:25.448Z,69.94
2023-05-13T01:50:25.467Z,69.94
2023-05-13T01:51:25.445Z,69.94
2023-05-13T01:52:25.397Z,69.94
2023-05-13T01:53:25.414Z,69.94
2023-05-13T01:54:25.375Z,69.94
2023-05-13T01:55:25.366Z,69.94
2023-05-13T01:56:25.360Z,69.94
2023-05-13T01:57:25.352Z,69.94
2023-05-13T01:58:25.330Z,69.94
2023-05-13T01:59:25.311Z,69.94
2023-05-13T02:00:25.293Z,69.94
2023-05-13T02:01:25.322Z,69.94
2023-05-13T02:02:25.283Z,69.94
2023-05-13T02:03:25.433Z,70.04
2023-05-13T02:04:25.246Z,70.04
2023-05-13T02:05:25.242Z,70.04
2023-05-13T02:06:25.220Z,70.04
2023-05-13T02:07:25.210Z,70.04
2023-05-13T02:08:25.200Z,70.04
2023-05-13T02:09:25.225Z,70.04
2023-05-13T02:10:25.167Z,70.04
2023-05-13T02:11:25.161Z,70.04
2023-05-13T02:12:25.141Z,70.04
2023-05-13T02:13:25.132Z,70.04
2023-05-13T02:14:25.118Z,70.04
2023-05-13T02:15:25.129Z,70.14
2023-05-13T02:16:25.151Z,70.14
2023-05-13T02:17:25.300Z,70.14
2023-05-13T02:18:25.092Z,70.14
2023-05-13T02:19:25.063Z,70.14
2023-05-13T02:20:25.048Z,70.14
2023-05-13T02:21:25.032Z,70.14
2023-05-13T02:22:25.020Z,70.14
2023-05-13T02:23:25.003Z,70.14
2023-05-13T02:24:25.003Z,70.14
2023-05-13T02:25:25.006Z,70.14
2023-05-13T02:26:24.962Z,70.27
2023-05-13T02:27:24.959Z,70.24
2023-05-13T02:28:24.948Z,70.24
2023-05-13T02:29:24.927Z,70.27
2023-05-13T02:30:24.914Z,70.27
2023-05-13T02:31:24.908Z,70.27
2023-05-13T02:32:24.959Z,70.14
2023-05-13T02:33:24.873Z,70.17
2023-05-13T02:34:24.863Z,70.27
2023-05-13T02:35:24.853Z,70.27
2023-05-13T02:36:24.837Z,70.27
2023-05-13T02:37:24.820Z,70.27
2023-05-13T02:38:24.814Z,70.27
2023-05-13T02:39:24.795Z,70.27
2023-05-13T02:40:24.784Z,70.27
2023-05-13T02:41:24.801Z,70.27
2023-05-13T02:42:24.758Z,70.27
2023-05-13T02:43:24.761Z,70.27
2023-05-13T02:44:24.737Z,70.17
2023-05-13T02:45:24.727Z,70.27
2023-05-13T02:46:24.785Z,70.27
2023-05-13T02:47:24.728Z,70.27
2023-05-13T02:48:24.682Z,70.27
2023-05-13T02:49:24.670Z,70.37
2023-05-13T02:50:24.660Z,70.27
2023-05-13T02:51:24.649Z,70.27
2023-05-13T02:52:24.631Z,70.37
2023-05-13T02:53:24.619Z,70.37
2023-05-13T02:54:24.611Z,70.37
2023-05-13T02:55:24.663Z,70.37
2023-05-13T02:56:24.580Z,70.37
2023-05-13T02:57:24.588Z,70.37
2023-05-13T02:58:24.562Z,70.37
2023-05-13T02:59:24.539Z,70.37
2023-05-13T03:00:24.591Z,70.37
2023-05-13T03:01:24.589Z,70.37
2023-05-13T03:02:24.576Z,70.37
2023-05-13T03:03:24.756Z,70.37
2023-05-13T03:04:24.493Z,70.37
2023-05-13T03:05:24.492Z,70.37
2023-05-13T03:06:24.475Z,70.37
2023-05-13T03:07:24.450Z,70.48
2023-05-13T03:08:24.427Z,70.48
2023-05-13T03:09:24.414Z,70.48
2023-05-13T03:10:24.398Z,70.37
2023-05-13T03:11:24.400Z,70.27
2023-05-13T03:12:24.378Z,70.27
2023-05-13T03:13:24.384Z,70.37
2023-05-13T03:14:24.350Z,70.37
2023-05-13T03:15:24.340Z,70.48
2023-05-13T03:16:24.399Z,70.48
2023-05-13T03:17:24.370Z,70.48
2023-05-13T03:18:24.336Z,70.48
2023-05-13T03:19:24.285Z,70.48
2023-05-13T03:20:24.312Z,70.48
2023-05-13T03:21:24.257Z,70.48
2023-05-13T03:22:24.248Z,70.48
2023-05-13T03:23:24.234Z,70.48
2023-05-13T03:24:24.220Z,70.48
2023-05-13T03:25:24.207Z,70.48
2023-05-13T03:26:24.197Z,70.48
2023-05-13T03:27:24.184Z,70.48
2023-05-13T03:28:24.169Z,70.48
2023-05-13T03:29:24.176Z,70.48
2023-05-13T03:30:24.146Z,70.48
2023-05-13T03:31:24.154Z,70.48
2023-05-13T03:32:24.130Z,70.48
2023-05-13T03:33:24.105Z,70.48
2023-05-13T03:34:24.093Z,70.48
2023-05-13T03:35:24.076Z,70.48
2023-05-13T03:36:24.066Z,70.58
2023-05-13T03:37:24.050Z,70.48
2023-05-13T03:38:24.035Z,70.58
2023-05-13T03:39:24.024Z,70.58
2023-05-13T03:40:24.105Z,70.58
2023-05-13T03:41:23.999Z,70.58
2023-05-13T03:42:23.987Z,70.48
2023-05-13T03:43:23.989Z,70.48
2023-05-13T03:44:23.961Z,70.48
2023-05-13T03:45:23.974Z,70.48
2023-05-13T03:46:24.004Z,70.58
2023-05-13T03:47:23.974Z,70.58
2023-05-13T03:48:23.912Z,70.58
2023-05-13T03:49:23.898Z,70.58
2023-05-13T03:50:24.237Z,70.48
2023-05-13T03:51:23.869Z,70.48
2023-05-13T03:52:23.859Z,70.58
2023-05-13T03:53:23.850Z,70.58
2023-05-13T03:54:23.836Z,70.58
2023-05-13T03:55:23.827Z,70.58
2023-05-13T03:56:23.817Z,70.48
2023-05-13T03:57:23.808Z,70.48
2023-05-13T03:58:23.808Z,70.48
2023-05-13T03:59:23.773Z,70.48
2023-05-13T04:00:23.994Z,70.48
2023-05-13T04:01:23.776Z,70.48
2023-05-13T04:02:23.948Z,70.48
2023-05-13T04:03:23.742Z,70.58
2023-05-13T04:04:23.764Z,70.58
2023-05-13T04:05:23.698Z,70.58
2023-05-13T04:06:23.700Z,70.58
2023-05-13T04:07:23.672Z,70.58
2023-05-13T04:08:23.661Z,70.58
2023-05-13T04:09:23.647Z,70.58
2023-05-13T04:10:23.766Z,70.48
2023-05-13T04:11:23.628Z,70.48
2023-05-13T04:12:23.606Z,70.48
2023-05-13T04:13:23.592Z,70.48
2023-05-13T04:14:23.580Z,70.48
2023-05-13T04:15:23.564Z,70.48
2023-05-13T04:16:23.572Z,70.48
2023-05-13T04:17:23.624Z,70.48
2023-05-13T04:18:23.576Z,70.48
2023-05-13T04:19:23.520Z,70.48
2023-05-13T04:20:23.892Z,70.48
2023-05-13T04:21:23.489Z,70.37
2023-05-13T04:22:23.480Z,70.37
2023-05-13T04:23:23.499Z,70.27
2023-05-13T04:24:23.453Z,70.37
2023-05-13T04:25:23.446Z,70.37
2023-05-13T04:26:23.426Z,70.37
2023-05-13T04:27:23.413Z,70.37
2023-05-13T04:28:23.400Z,70.37
2023-05-13T04:29:23.388Z,70.37
2023-05-13T04:30:23.581Z,70.37
2023-05-13T04:31:23.389Z,70.37
2023-05-13T04:32:23.348Z,70.48
2023-05-13T04:33:23.389Z,70.48
2023-05-13T04:34:23.322Z,70.37
2023-05-13T04:35:23.306Z,70.37
2023-05-13T04:36:23.296Z,70.37
2023-05-13T04:37:23.293Z,70.37
2023-05-13T04:38:23.269Z,70.48
2023-05-13T04:39:23.258Z,70.48
2023-05-13T04:40:23.434Z,70.48
2023-05-13T04:41:23.231Z,70.48
2023-05-13T04:42:23.220Z,70.48
2023-05-13T04:43:23.202Z,70.48
2023-05-13T04:44:23.195Z,70.48
2023-05-13T04:45:23.179Z,70.48
2023-05-13T04:46:23.196Z,70.48
2023-05-13T04:47:23.200Z,70.48
2023-05-13T04:48:23.141Z,70.48
2023-05-13T04:49:23.189Z,70.48
2023-05-13T04:50:23.357Z,70.48
2023-05-13T04:51:23.116Z,70.48
2023-05-13T04:52:23.091Z,70.48
2023-05-13T04:53:23.076Z,70.48
2023-05-13T04:54:23.066Z,70.48
2023-05-13T04:55:23.056Z,70.48
2023-05-13T04:56:23.037Z,70.48
2023-05-13T04:57:23.027Z,70.48
2023-05-13T04:58:23.017Z,70.48
2023-05-13T04:59:23.022Z,70.48
2023-05-13T05:00:23.198Z,70.48
2023-05-13T05:01:23.029Z,70.48
2023-05-13T05:02:22.969Z,70.48
2023-05-13T05:03:23.018Z,70.48
2023-05-13T05:04:22.990Z,70.48
2023-05-13T05:05:22.962Z,70.48
2023-05-13T05:06:22.914Z,70.37
2023-05-13T05:07:22.898Z,70.17
2023-05-13T05:08:22.889Z,70.07
2023-05-13T05:09:22.871Z,69.97
2023-05-13T05:10:23.055Z,69.87
2023-05-13T05:11:22.865Z,69.83
2023-05-13T05:12:22.857Z,69.73
2023-05-13T05:13:22.832Z,69.73
2023-05-13T05:14:22.816Z,69.63
2023-05-13T05:15:22.800Z,69.53
2023-05-13T05:16:22.782Z,69.53
2023-05-13T05:17:22.878Z,69.43
2023-05-13T05:18:22.903Z,69.43
2023-05-13T05:19:22.784Z,69.32
2023-05-13T05:20:22.921Z,69.22
2023-05-13T05:21:22.749Z,69.22
2023-05-13T05:22:22.713Z,69.12
2023-05-13T05:23:22.697Z,69.12
2023-05-13T05:24:22.699Z,69.02
2023-05-13T05:25:22.670Z,69.02
2023-05-13T05:26:22.656Z,69.02
2023-05-13T05:27:22.654Z,68.92
2023-05-13T05:28:22.634Z,68.92
2023-05-13T05:29:22.620Z,68.89
2023-05-13T05:30:22.997Z,68.89
2023-05-13T05:31:22.655Z,68.78
2023-05-13T05:32:22.591Z,68.78
2023-05-13T05:33:22.566Z,68.78
2023-05-13T05:34:22.567Z,68.78
2023-05-13T05:35:22.539Z,68.78
2023-05-13T05:36:22.531Z,68.68
2023-05-13T05:37:22.556Z,68.68
2023-05-13T05:38:22.503Z,68.68
2023-05-13T05:39:22.486Z,68.68
2023-05-13T05:40:22.770Z,68.68
2023-05-13T05:41:22.459Z,68.68
2023-05-13T05:42:22.451Z,68.58
2023-05-13T05:43:22.436Z,68.68
2023-05-13T05:44:22.425Z,68.58
2023-05-13T05:45:22.409Z,68.58
2023-05-13T05:46:22.427Z,68.58
2023-05-13T05:47:22.413Z,68.48
2023-05-13T05:48:22.370Z,68.48
2023-05-13T05:49:22.366Z,68.48
2023-05-13T05:50:22.673Z,68.48
2023-05-13T05:51:22.340Z,68.38
2023-05-13T05:52:22.322Z,68.38
2023-05-13T05:53:22.333Z,68.38
2023-05-13T05:54:22.295Z,68.38
2023-05-13T05:55:22.279Z,68.38
2023-05-13T05:56:22.266Z,68.28
2023-05-13T05:57:22.262Z,68.28
2023-05-13T05:58:22.249Z,68.28
2023-05-13T05:59:22.228Z,68.38
2023-05-13T06:00:22.413Z,68.38
2023-05-13T06:01:22.201Z,68.28
2023-05-13T06:02:22.235Z,68.28
2023-05-13T06:03:22.408Z,68.28
2023-05-13T06:04:22.249Z,68.28
2023-05-13T06:05:22.147Z,68.18
2023-05-13T06:06:22.139Z,68.18
2023-05-13T06:07:22.123Z,68.18
2023-05-13T06:08:22.108Z,68.18
2023-05-13T06:09:22.127Z,68.18
2023-05-13T06:10:22.292Z,68.18
2023-05-13T06:11:22.078Z,68.07
2023-05-13T06:12:22.058Z,68.07
2023-05-13T06:13:22.060Z,68.18
2023-05-13T06:14:22.034Z,68.07
2023-05-13T06:15:22.024Z,68.04
2023-05-13T06:16:22.033Z,68.04
2023-05-13T06:17:22.009Z,68.04
2023-05-13T06:18:21.995Z,67.94
2023-05-13T06:19:21.974Z,67.94
2023-05-13T06:20:22.252Z,67.97
2023-05-13T06:21:21.940Z,67.94
2023-05-13T06:22:21.932Z,67.94
2023-05-13T06:23:21.917Z,67.94
2023-05-13T06:24:21.906Z,67.84
2023-05-13T06:25:21.929Z,67.84
2023-05-13T06:26:21.884Z,67.94
2023-05-13T06:27:21.865Z,67.94
2023-05-13T06:28:21.855Z,67.94
2023-05-13T06:29:21.841Z,67.84
2023-05-13T06:30:22.131Z,67.84
2023-05-13T06:31:21.847Z,67.84
2023-05-13T06:32:21.877Z,67.84
2023-05-13T06:33:21.844Z,67.84
2023-05-13T06:34:21.777Z,67.84
2023-05-13T06:35:21.770Z,67.84
2023-05-13T06:36:21.750Z,67.84
2023-05-13T06:37:21.740Z,67.84
2023-05-13T06:38:21.725Z,67.84
2023-05-13T06:39:21.719Z,67.84
2023-05-13T06:40:22.031Z,67.84
2023-05-13T06:41:21.728Z,67.84
2023-05-13T06:42:21.678Z,67.97
2023-05-13T06:43:21.666Z,68.07
2023-05-13T06:44:21.648Z,68.07
2023-05-13T06:45:21.638Z,68.07
2023-05-13T06:46:21.679Z,68.07
2023-05-13T06:47:23.712Z,68.07
2023-05-13T06:48:21.599Z,68.07
2023-05-13T06:49:21.584Z,68.18
2023-05-13T06:50:21.815Z,68.28
2023-05-13T06:51:21.559Z,68.18
2023-05-13T06:52:21.544Z,68.07
2023-05-13T06:53:21.546Z,68.07
2023-05-13T06:54:21.520Z,68.14
2023-05-13T06:55:21.507Z,67.94
2023-05-13T06:56:21.493Z,67.94
2023-05-13T06:57:23.428Z,67.94
2023-05-13T06:58:22.499Z,67.94
2023-05-13T06:59:21.455Z,67.94
2023-05-13T07:00:21.610Z,68.04
2023-05-13T07:01:21.467Z,67.94
2023-05-13T07:02:21.420Z,67.94
2023-05-13T07:03:21.415Z,67.94
2023-05-13T07:04:21.427Z,67.94
2023-05-13T07:05:21.372Z,67.84
2023-05-13T07:06:21.361Z,67.84
2023-05-13T07:07:21.350Z,67.84
2023-05-13T07:08:21.330Z,67.94
2023-05-13T07:09:21.366Z,67.94
2023-05-13T07:10:21.512Z,67.94
2023-05-13T07:11:21.296Z,67.94
2023-05-13T07:12:21.283Z,67.94
2023-05-13T07:13:21.297Z,67.84
2023-05-13T07:14:21.255Z,67.84
2023-05-13T07:15:21.400Z,67.84
2023-05-13T07:16:21.228Z,67.84
2023-05-13T07:17:21.310Z,67.74
2023-05-13T07:18:21.259Z,67.74
2023-05-13T07:19:21.297Z,67.63
2023-05-13T07:20:21.432Z,67.54
2023-05-13T07:21:21.165Z,67.43
2023-05-13T07:22:21.152Z,67.54
2023-05-13T07:23:21.138Z,67.43
2023-05-13T07:24:21.125Z,67.43
2023-05-13T07:25:21.112Z,67.43
2023-05-13T07:26:21.099Z,67.43
2023-05-13T07:27:21.098Z,67.43
2023-05-13T07:28:21.088Z,67.54
2023-05-13T07:29:21.085Z,67.43
2023-05-13T07:30:21.310Z,67.54
2023-05-13T07:31:21.071Z,67.43
2023-05-13T07:32:21.062Z,67.43
2023-05-13T07:33:21.058Z,67.33
2023-05-13T07:34:21.001Z,67.30
2023-05-13T07:35:21.276Z,67.33
2023-05-13T07:36:20.967Z,67.30
2023-05-13T07:37:20.971Z,67.19
2023-05-13T07:38:20.943Z,67.19
2023-05-13T07:39:20.930Z,67.30
2023-05-13T07:40:21.225Z,67.19
2023-05-13T07:41:20.905Z,67.10
2023-05-13T07:42:20.911Z,66.99
2023-05-13T07:43:20.880Z,66.99
2023-05-13T07:44:20.865Z,66.90
2023-05-13T07:45:21.294Z,66.59
2023-05-13T07:46:20.864Z,66.69
2023-05-13T07:47:21.069Z,66.99
2023-05-13T07:48:20.811Z,66.90
2023-05-13T07:49:20.803Z,66.79
2023-05-13T07:50:20.788Z,66.90
2023-05-13T07:51:20.777Z,66.99
2023-05-13T07:52:20.763Z,67.10
2023-05-13T07:53:20.748Z,67.19
2023-05-13T07:54:20.734Z,67.19
2023-05-13T07:55:20.886Z,67.10
2023-05-13T07:56:20.708Z,67.10
2023-05-13T07:57:20.699Z,66.99
2023-05-13T07:58:20.690Z,66.99
2023-05-13T07:59:20.670Z,67.10
2023-05-13T08:00:20.658Z,67.19
2023-05-13T08:01:20.665Z,67.10
2023-05-13T08:02:20.672Z,67.19
2023-05-13T08:03:20.713Z,67.19
2023-05-13T08:04:20.713Z,67.10
2023-05-13T08:05:20.855Z,67.10
2023-05-13T08:06:20.595Z,66.99
2023-05-13T08:07:20.569Z,66.49
2023-05-13T08:08:20.563Z,66.49
2023-05-13T08:09:20.543Z,66.38
2023-05-13T08:10:20.526Z,66.49
2023-05-13T08:11:20.513Z,66.49
2023-05-13T08:12:20.504Z,66.38
2023-05-13T08:13:20.488Z,66.38
2023-05-13T08:14:20.470Z,66.29
2023-05-13T08:15:20.909Z,66.29
2023-05-13T08:16:20.490Z,66.18
2023-05-13T08:17:20.486Z,66.15
2023-05-13T08:18:20.427Z,66.29
2023-05-13T08:19:20.491Z,66.08
2023-05-13T08:20:20.393Z,65.75
2023-05-13T08:21:20.398Z,65.85
2023-05-13T08:22:20.383Z,65.85
2023-05-13T08:23:20.750Z,65.64
2023-05-13T08:24:20.341Z,65.54
2023-05-13T08:25:20.771Z,65.85
2023-05-13T08:26:20.317Z,65.95
2023-05-13T08:27:20.299Z,65.85
2023-05-13T08:28:20.285Z,65.54
2023-05-13T08:29:20.276Z,65.24
2023-05-13T08:30:20.259Z,64.83
2023-05-13T08:31:20.280Z,65.14
2023-05-13T08:32:20.286Z,64.83
2023-05-13T08:33:20.247Z,65.24
2023-05-13T08:34:20.209Z,65.24
2023-05-13T08:35:20.553Z,65.14
2023-05-13T08:36:20.181Z,64.94
2023-05-13T08:37:20.169Z,64.94
2023-05-13T08:38:20.160Z,65.14
2023-05-13T08:39:20.145Z,65.34
2023-05-13T08:40:20.127Z,65.24
2023-05-13T08:41:22.020Z,65.54
2023-05-13T08:42:20.101Z,65.64
2023-05-13T08:43:20.160Z,65.75
2023-05-13T08:44:20.080Z,65.24
2023-05-13T08:45:20.143Z,65.14
2023-05-13T08:46:20.087Z,65.14
2023-05-13T08:47:20.042Z,65.14
2023-05-13T08:48:20.029Z,65.44
2023-05-13T08:49:20.041Z,65.24
2023-05-13T08:50:19.998Z,65.24
2023-05-13T08:51:19.991Z,65.34
2023-05-13T08:52:19.970Z,65.24
2023-05-13T08:53:19.960Z,65.44
2023-05-13T08:54:22.235Z,65.44
2023-05-13T08:55:20.129Z,65.24
2023-05-13T08:56:19.932Z,65.24
2023-05-13T08:57:19.932Z,65.03
2023-05-13T08:58:19.897Z,65.03
2023-05-13T08:59:19.884Z,65.14
2023-05-13T09:00:21.551Z,65.24
2023-05-13T09:01:19.901Z,65.14
2023-05-13T09:02:19.844Z,65.34
2023-05-13T09:03:19.829Z,65.24
2023-05-13T09:04:19.813Z,65.24
2023-05-13T09:05:19.984Z,64.94
2023-05-13T09:06:19.786Z,64.83
2023-05-13T09:07:19.773Z,64.94
2023-05-13T09:08:19.761Z,64.83
2023-05-13T09:09:19.747Z,65.03
2023-05-13T09:10:25.756Z,65.03
2023-05-13T09:11:19.718Z,65.03
2023-05-13T09:12:19.706Z,64.94
2023-05-13T09:13:19.701Z,64.83
2023-05-13T09:14:19.681Z,64.94
2023-05-13T09:15:19.883Z,65.14
2023-05-13T09:16:19.663Z,65.14
2023-05-13T09:17:19.643Z,65.03
2023-05-13T09:18:19.819Z,65.00
2023-05-13T09:19:19.759Z,65.11
2023-05-13T09:20:19.619Z,65.11
2023-05-13T09:21:19.608Z,64.70
2023-05-13T09:22:19.581Z,64.80
2023-05-13T09:23:19.562Z,64.91
2023-05-13T09:24:19.544Z,64.60
2023-05-13T09:25:19.710Z,64.60
2023-05-13T09:26:19.517Z,64.50
2023-05-13T09:27:19.506Z,64.30
2023-05-13T09:28:19.487Z,64.30
2023-05-13T09:29:19.502Z,64.06
2023-05-13T09:30:19.471Z,63.76
2023-05-13T09:31:19.515Z,63.65
2023-05-13T09:32:19.436Z,63.65
2023-05-13T09:33:19.423Z,63.76
2023-05-13T09:34:19.411Z,63.96
2023-05-13T09:35:19.586Z,63.96
2023-05-13T09:36:19.390Z,63.96
2023-05-13T09:37:19.422Z,64.27
2023-05-13T09:38:19.381Z,64.09
2023-05-13T09:39:19.342Z,63.96
2023-05-13T09:40:19.512Z,64.19
2023-05-13T09:41:19.329Z,64.30
2023-05-13T09:42:19.325Z,64.19
2023-05-13T09:43:19.291Z,64.19
2023-05-13T09:44:19.272Z,63.89
2023-05-13T09:45:19.291Z,63.99
2023-05-13T09:46:19.259Z,64.19
2023-05-13T09:47:19.234Z,64.50
2023-05-13T09:48:19.224Z,64.50
2023-05-13T09:49:19.205Z,64.70
2023-05-13T09:50:19.406Z,64.91
2023-05-13T09:51:19.180Z,64.80
2023-05-13T09:52:19.167Z,64.94
2023-05-13T09:53:19.176Z,65.03
2023-05-13T09:54:19.141Z,65.24
2023-05-13T09:55:19.128Z,65.14
2023-05-13T09:56:19.113Z,65.11
2023-05-13T09:57:19.105Z,64.91
2023-05-13T09:58:19.088Z,64.30
2023-05-13T09:59:19.090Z,64.39
2023-05-13T10:00:31.715Z,64.42
2023-05-13T10:01:20.159Z,64.30
2023-05-13T10:02:19.034Z,63.69
2023-05-13T10:03:19.022Z,64.19
2023-05-13T10:04:19.087Z,63.99
2023-05-13T10:05:18.996Z,64.39
2023-05-13T10:06:18.980Z,64.70
2023-05-13T10:07:18.970Z,64.39
2023-05-13T10:08:18.961Z,64.39
2023-05-13T10:09:18.980Z,64.53
2023-05-13T10:10:18.970Z,64.73
2023-05-13T10:11:18.928Z,64.73
2023-05-13T10:12:18.904Z,64.94
2023-05-13T10:13:18.888Z,65.14
2023-05-13T10:14:18.876Z,65.14
2023-05-13T10:15:18.863Z,65.14
2023-05-13T10:16:18.912Z,64.63
2023-05-13T10:17:18.839Z,64.73
2023-05-13T10:18:18.875Z,64.91
2023-05-13T10:19:18.858Z,64.70
2023-05-13T10:20:18.873Z,64.91
2023-05-13T10:21:18.796Z,65.20
2023-05-13T10:22:18.771Z,65.24
2023-05-13T10:23:18.757Z,65.14
2023-05-13T10:24:18.748Z,65.34
2023-05-13T10:25:18.757Z,65.24
2023-05-13T10:26:18.730Z,65.03
2023-05-13T10:31:17.424Z,64.91
2023-05-13T10:32:17.653Z,64.70
2023-05-13T10:33:17.428Z,64.19
2023-05-13T10:34:17.331Z,64.09
2023-05-13T10:35:17.307Z,63.99
2023-05-13T10:36:17.296Z,63.99
2023-05-13T10:37:17.291Z,63.79
2023-05-13T10:38:17.282Z,63.56
2023-05-13T10:39:17.250Z,63.15
2023-05-13T10:40:17.298Z,62.95
2023-05-13T10:41:17.251Z,62.64
2023-05-13T10:42:17.209Z,62.84
2023-05-13T10:43:17.237Z,62.95
2023-05-13T10:44:17.187Z,63.45
2023-05-13T10:45:17.178Z,63.05
2023-05-13T10:46:17.188Z,62.54
2023-05-13T10:47:17.186Z,62.95
2023-05-13T10:48:17.206Z,63.05
2023-05-13T10:49:17.132Z,63.35
2023-05-13T10:50:17.122Z,63.65
2023-05-13T10:51:17.096Z,63.45
2023-05-13T10:52:17.085Z,63.05
2023-05-13T10:53:17.065Z,63.35
2023-05-13T10:54:17.053Z,63.56
2023-05-13T10:55:17.034Z,63.86
2023-05-13T10:56:17.070Z,63.86
2023-05-13T10:57:18.378Z,63.35
2023-05-13T10:58:17.010Z,63.45
2023-05-13T10:59:17.011Z,63.65
2023-05-13T11:00:17.063Z,64.06
2023-05-13T11:01:17.040Z,64.36
2023-05-13T11:02:16.993Z,64.27
2023-05-13T11:03:17.017Z,64.47
2023-05-13T11:04:16.927Z,64.27
2023-05-13T11:05:16.907Z,64.16
2023-05-13T11:06:16.892Z,64.06
2023-05-13T11:07:16.895Z,64.16
2023-05-13T11:08:16.867Z,64.16
2023-05-13T11:09:16.853Z,63.96
2023-05-13T11:10:16.843Z,63.86
2023-05-13T11:11:16.826Z,63.96
2023-05-13T11:12:16.816Z,63.96
2023-05-13T11:13:16.879Z,63.86
2023-05-13T11:14:16.814Z,63.96
2023-05-13T11:15:16.787Z,63.86
2023-05-13T11:16:16.809Z,63.86
2023-05-13T11:17:16.748Z,63.56
2023-05-13T11:18:16.756Z,63.15
2023-05-13T11:19:16.760Z,62.75
2023-05-13T11:20:16.717Z,62.84
2023-05-13T11:21:16.696Z,63.05
2023-05-13T11:22:16.705Z,63.35
2023-05-13T11:23:16.670Z,63.65
2023-05-13T11:24:16.661Z,63.86
2023-05-13T11:25:16.643Z,64.06
2023-05-13T11:26:16.628Z,63.86
2023-05-13T11:27:16.620Z,63.76
2023-05-13T11:28:16.605Z,63.96
2023-05-13T11:29:16.625Z,63.86
2023-05-13T11:30:16.578Z,64.06
2023-05-13T11:31:16.593Z,63.65
2023-05-13T11:32:16.552Z,64.16
2023-05-13T11:33:16.542Z,64.36
2023-05-13T11:34:16.547Z,64.19
2023-05-13T11:35:16.518Z,63.89
2023-05-13T11:36:16.500Z,63.89
2023-05-13T11:37:16.483Z,63.89
2023-05-13T11:38:16.472Z,63.69
2023-05-13T11:39:16.457Z,63.86
2023-05-13T11:40:16.444Z,63.45
2023-05-13T11:41:16.429Z,63.45
2023-05-13T11:42:16.421Z,63.45
2023-05-13T11:43:16.406Z,62.64
2023-05-13T11:44:16.393Z,62.95
2023-05-13T11:45:16.412Z,63.25
2023-05-13T11:46:16.415Z,62.84
2023-05-13T11:47:16.358Z,62.64
2023-05-13T11:48:16.339Z,62.75
2023-05-13T11:49:16.325Z,63.05
2023-05-13T11:50:16.317Z,63.25
2023-05-13T11:51:16.297Z,62.03
2023-05-13T11:52:16.288Z,61.83
2023-05-13T11:53:16.269Z,61.63
2023-05-13T11:54:16.257Z,62.13
2023-05-13T11:55:16.260Z,62.03
2023-05-13T11:56:16.237Z,62.13
2023-05-13T11:57:16.223Z,61.73
2023-05-13T11:58:16.206Z,61.23
2023-05-13T11:59:16.192Z,61.83
2023-05-13T12:00:16.179Z,61.73
2023-05-13T12:01:16.192Z,61.63
2023-05-13T12:02:16.189Z,61.52
2023-05-13T12:03:16.645Z,61.52
2023-05-13T12:04:16.135Z,61.43
2023-05-13T12:05:16.180Z,61.73
2023-05-13T12:06:16.109Z,61.93
2023-05-13T12:07:16.084Z,61.83
2023-05-13T12:08:16.084Z,61.93
2023-05-13T12:09:16.086Z,62.13
2023-05-13T12:10:16.058Z,62.64
2023-05-13T12:11:16.041Z,62.24
2023-05-13T12:12:16.030Z,62.64
2023-05-13T12:13:16.011Z,61.93
2023-05-13T12:14:15.995Z,61.93
2023-05-13T12:15:16.023Z,61.93
2023-05-13T12:16:15.999Z,62.54
2023-05-13T12:17:15.978Z,63.15
2023-05-13T12:18:15.967Z,62.03
2023-05-13T12:19:16.018Z,62.24
2023-05-13T12:20:15.914Z,61.43
2023-05-13T12:21:15.913Z,61.93
2023-05-13T12:22:15.893Z,61.43
2023-05-13T12:23:15.872Z,61.12
2023-05-13T12:24:15.863Z,61.12
2023-05-13T12:25:15.848Z,61.09
2023-05-13T12:26:15.837Z,61.29
2023-05-13T12:27:15.824Z,61.60
2023-05-13T12:28:15.806Z,61.60
2023-05-13T12:29:15.803Z,61.70
2023-05-13T12:30:15.779Z,62.13
2023-05-13T12:31:15.787Z,62.01
2023-05-13T12:32:15.760Z,61.43
2023-05-13T12:33:15.861Z,61.52
2023-05-13T12:34:15.725Z,61.52
2023-05-13T12:35:15.713Z,61.83
2023-05-13T12:36:15.698Z,61.52
2023-05-13T12:37:15.684Z,61.52
2023-05-13T12:38:15.673Z,60.69
2023-05-13T12:39:15.658Z,60.99
2023-05-13T12:40:15.697Z,61.70
2023-05-13T12:41:15.636Z,61.80
2023-05-13T12:42:15.620Z,62.10
2023-05-13T12:43:15.603Z,61.70
2023-05-13T12:44:15.601Z,62.31
2023-05-13T12:45:15.583Z,62.41
2023-05-13T12:46:15.597Z,62.44
2023-05-13T12:47:15.583Z,61.60
2023-05-13T12:48:15.541Z,61.40
2023-05-13T12:49:15.550Z,61.40
2023-05-13T12:50:15.516Z,61.90
2023-05-13T12:51:15.500Z,61.90
2023-05-13T12:52:15.488Z,61.80
2023-05-13T12:53:15.474Z,61.70
2023-05-13T12:54:15.463Z,61.29
2023-05-13T12:55:15.454Z,61.70
2023-05-13T12:56:15.450Z,62.31
2023-05-13T12:57:15.426Z,61.90